createdAt,value
2019-03-25T00:00:15.150Z,14.00
2019-03-25T00:01:15.130Z,24.60
2019-03-25T00:02:15.116Z,19.80
2019-03-25T00:03:15.130Z,19.40
2019-03-25T00:04:15.096Z,13.90
2019-03-25T00:05:15.085Z,13.70
2019-03-25T00:06:15.074Z,13.20
2019-03-25T00:07:15.063Z,13.10
2019-03-25T00:08:15.053Z,13.10
2019-03-25T00:09:15.038Z,12.90
2019-03-25T00:10:15.028Z,11.90
2019-03-25T00:11:15.022Z,12.00
2019-03-25T00:12:15.006Z,13.00
2019-03-25T00:13:14.993Z,12.10
2019-03-25T00:14:14.987Z,11.90
2019-03-25T00:15:14.973Z,11.50
2019-03-25T00:16:14.959Z,12.00
2019-03-25T00:17:14.949Z,12.30
2019-03-25T00:18:14.944Z,11.90
2019-03-25T00:19:14.940Z,11.70
2019-03-25T00:20:14.926Z,11.60
2019-03-25T00:21:14.903Z,12.20
2019-03-25T00:22:14.894Z,11.90
2019-03-25T00:23:14.880Z,11.40
2019-03-25T00:24:14.874Z,12.40
2019-03-25T00:25:14.858Z,11.90
2019-03-25T00:26:14.848Z,12.70
2019-03-25T00:27:14.844Z,16.40
2019-03-25T00:28:14.828Z,15.10
2019-03-25T00:29:14.819Z,14.60
2019-03-25T00:30:14.805Z,12.10
2019-03-25T00:31:14.798Z,11.90
2019-03-25T00:32:14.783Z,11.30
2019-03-25T00:33:14.777Z,10.90
2019-03-25T00:34:14.790Z,11.80
2019-03-25T00:35:14.749Z,13.30
2019-03-25T00:36:14.739Z,16.40
2019-03-25T00:37:14.733Z,22.40
2019-03-25T00:38:14.718Z,19.80
2019-03-25T00:39:14.707Z,21.30
2019-03-25T00:40:14.694Z,14.70
2019-03-25T00:41:14.683Z,12.90
2019-03-25T00:42:14.674Z,13.20
2019-03-25T00:43:14.670Z,13.80
2019-03-25T00:44:14.655Z,17.50
2019-03-25T00:45:14.642Z,20.40
2019-03-25T00:46:14.625Z,17.40
2019-03-25T00:47:14.614Z,17.20
2019-03-25T00:48:14.612Z,17.70
2019-03-25T00:49:14.592Z,29.00
2019-03-25T00:50:14.582Z,52.40
2019-03-25T00:51:14.579Z,75.70
2019-03-25T00:52:14.558Z,38.60
2019-03-25T00:53:14.554Z,19.60
2019-03-25T00:54:14.538Z,20.10
2019-03-25T00:55:14.527Z,19.30
2019-03-25T00:56:14.521Z,22.50
2019-03-25T00:57:14.512Z,15.10
2019-03-25T00:58:14.492Z,12.40
2019-03-25T00:59:14.483Z,12.30
2019-03-25T01:00:14.473Z,13.60
2019-03-25T01:01:14.464Z,12.00
2019-03-25T01:02:14.450Z,28.80
2019-03-25T01:03:14.439Z,73.60
2019-03-25T01:04:14.424Z,86.10
2019-03-25T01:05:14.421Z,38.70
2019-03-25T01:06:14.407Z,23.60
2019-03-25T01:07:14.392Z,18.00
2019-03-25T01:08:14.386Z,44.80
2019-03-25T01:09:14.369Z,45.90
2019-03-25T01:10:14.368Z,130.60
2019-03-25T01:11:14.361Z,37.70
2019-03-25T01:12:14.353Z,57.90
2019-03-25T01:13:14.332Z,84.60
2019-03-25T01:14:14.319Z,47.80
2019-03-25T01:15:14.303Z,94.60
2019-03-25T01:16:14.302Z,44.40
2019-03-25T01:17:14.302Z,80.90
2019-03-25T01:18:17.148Z,52.90
2019-03-25T01:19:14.261Z,24.80
2019-03-25T01:20:14.332Z,18.00
2019-03-25T01:21:14.241Z,14.60
2019-03-25T01:22:14.226Z,13.20
2019-03-25T01:23:14.222Z,26.00
2019-03-25T01:24:14.212Z,112.10
2019-03-25T01:25:14.203Z,67.80
2019-03-25T01:26:14.194Z,69.30
2019-03-25T01:27:14.177Z,166.10
2019-03-25T01:28:14.162Z,58.20
2019-03-25T01:29:14.155Z,40.60
2019-03-25T01:30:14.137Z,88.00
2019-03-25T01:31:14.129Z,105.70
2019-03-25T01:32:14.124Z,57.70
2019-03-25T01:33:14.109Z,104.70
2019-03-25T01:34:14.092Z,119.80
2019-03-25T01:35:14.080Z,188.10
2019-03-25T01:36:14.072Z,150.10
2019-03-25T01:37:14.065Z,38.90
2019-03-25T01:38:14.048Z,43.60
2019-03-25T01:39:14.037Z,25.00
2019-03-25T01:40:14.032Z,26.90
2019-03-25T01:41:14.044Z,20.50
2019-03-25T01:42:14.006Z,16.60
2019-03-25T01:43:14.029Z,14.10
2019-03-25T01:44:14.004Z,13.50
2019-03-25T01:45:13.974Z,14.10
2019-03-25T01:46:13.965Z,13.80
2019-03-25T01:47:13.960Z,13.10
2019-03-25T01:48:13.948Z,19.20
2019-03-25T01:49:13.936Z,19.80
2019-03-25T01:50:13.926Z,36.00
2019-03-25T01:51:13.908Z,64.70
2019-03-25T01:52:13.897Z,52.40
2019-03-25T01:53:13.887Z,33.90
2019-03-25T01:54:13.877Z,19.90
2019-03-25T01:55:13.939Z,17.10
2019-03-25T01:56:13.855Z,21.10
2019-03-25T01:57:13.847Z,21.60
2019-03-25T01:58:13.826Z,18.20
2019-03-25T01:59:13.822Z,24.10
2019-03-25T02:00:13.818Z,26.30
2019-03-25T02:01:13.804Z,18.50
2019-03-25T02:02:13.790Z,15.60
2019-03-25T02:03:13.774Z,15.00
2019-03-25T02:04:13.762Z,14.20
2019-03-25T02:05:13.756Z,12.40
2019-03-25T02:06:13.742Z,12.50
2019-03-25T02:07:13.729Z,13.90
2019-03-25T02:08:13.721Z,15.60
2019-03-25T02:09:13.708Z,46.20
2019-03-25T02:10:13.699Z,44.80
2019-03-25T02:11:13.686Z,41.10
2019-03-25T02:12:13.675Z,63.40
2019-03-25T02:13:13.665Z,60.20
2019-03-25T02:14:13.654Z,39.60
2019-03-25T02:15:13.662Z,47.70
2019-03-25T02:16:13.637Z,44.90
2019-03-25T02:17:13.624Z,40.60
2019-03-25T02:18:13.614Z,29.80
2019-03-25T02:19:13.621Z,56.00
2019-03-25T02:20:13.590Z,38.20
2019-03-25T02:21:13.583Z,19.90
2019-03-25T02:22:13.582Z,18.80
2019-03-25T02:23:13.677Z,14.70
2019-03-25T02:24:13.559Z,13.70
2019-03-25T02:25:24.599Z,14.30
2019-03-25T02:26:14.524Z,13.10
2019-03-25T02:27:13.514Z,12.90
2019-03-25T02:28:13.502Z,13.30
2019-03-25T02:29:13.500Z,14.20
2019-03-25T02:30:13.479Z,41.40
2019-03-25T02:31:13.512Z,81.90
2019-03-25T02:32:13.459Z,30.10
2019-03-25T02:33:13.453Z,23.80
2019-03-25T02:34:13.435Z,22.70
2019-03-25T02:35:13.433Z,27.20
2019-03-25T02:36:13.413Z,81.50
2019-03-25T02:37:13.403Z,54.80
2019-03-25T02:38:13.392Z,59.90
2019-03-25T02:39:13.379Z,80.50
2019-03-25T02:40:13.371Z,43.50
2019-03-25T02:41:13.361Z,24.70
2019-03-25T02:42:13.349Z,31.00
2019-03-25T02:43:13.336Z,34.50
2019-03-25T02:44:13.333Z,24.30
2019-03-25T02:45:13.315Z,31.20
2019-03-25T02:46:13.349Z,34.60
2019-03-25T02:47:13.306Z,44.40
2019-03-25T02:48:13.285Z,18.20
2019-03-25T02:49:13.279Z,16.00
2019-03-25T02:50:13.263Z,60.40
2019-03-25T02:51:13.284Z,41.60
2019-03-25T02:52:13.239Z,44.70
2019-03-25T02:53:13.240Z,61.40
2019-03-25T02:54:13.226Z,65.30
2019-03-25T02:55:13.216Z,45.60
2019-03-25T02:56:13.198Z,35.20
2019-03-25T02:57:13.187Z,58.30
2019-03-25T02:58:13.181Z,57.40
2019-03-25T02:59:13.168Z,80.80
2019-03-25T03:00:13.202Z,45.30
2019-03-25T03:01:13.186Z,39.20
2019-03-25T03:02:13.146Z,21.70
2019-03-25T03:03:13.117Z,42.70
2019-03-25T03:04:13.110Z,35.60
2019-03-25T03:05:13.095Z,44.60
2019-03-25T03:06:13.088Z,28.60
2019-03-25T03:07:13.076Z,22.90
2019-03-25T03:08:13.065Z,19.80
2019-03-25T03:09:13.050Z,19.50
2019-03-25T03:10:13.041Z,18.90
2019-03-25T03:11:13.031Z,19.90
2019-03-25T03:12:13.018Z,20.20
2019-03-25T03:13:13.007Z,18.60
2019-03-25T03:14:15.332Z,34.90
2019-03-25T03:15:13.015Z,26.50
2019-03-25T03:16:12.987Z,29.70
2019-03-25T03:17:12.971Z,33.80
2019-03-25T03:18:12.959Z,27.90
2019-03-25T03:19:12.941Z,26.40
2019-03-25T03:20:12.931Z,29.30
2019-03-25T03:21:12.917Z,25.70
2019-03-25T03:22:12.911Z,79.20
2019-03-25T03:23:12.897Z,84.60
2019-03-25T03:24:12.891Z,95.10
2019-03-25T03:25:12.874Z,131.90
2019-03-25T03:26:12.868Z,142.40
2019-03-25T03:27:12.857Z,78.90
2019-03-25T03:28:12.841Z,113.80
2019-03-25T03:29:12.833Z,60.50
2019-03-25T03:30:12.844Z,29.50
2019-03-25T03:31:12.812Z,30.10
2019-03-25T03:32:12.802Z,20.10
2019-03-25T03:33:12.798Z,20.30
2019-03-25T03:34:12.781Z,19.00
2019-03-25T03:35:12.774Z,19.60
2019-03-25T03:36:12.763Z,20.60
2019-03-25T03:37:12.742Z,37.80
2019-03-25T03:38:12.732Z,28.50
2019-03-25T03:39:12.724Z,30.40
2019-03-25T03:40:12.706Z,50.10
2019-03-25T03:41:12.699Z,53.60
2019-03-25T03:42:12.686Z,53.50
2019-03-25T03:43:12.676Z,34.00
2019-03-25T03:44:12.664Z,72.80
2019-03-25T03:45:12.710Z,46.00
2019-03-25T03:46:12.642Z,46.80
2019-03-25T03:47:12.629Z,71.20
2019-03-25T03:48:12.620Z,67.80
2019-03-25T03:49:12.610Z,60.90
2019-03-25T03:50:14.114Z,46.10
2019-03-25T03:51:12.584Z,57.80
2019-03-25T03:52:12.597Z,33.50
2019-03-25T03:53:12.563Z,31.20
2019-03-25T03:54:12.548Z,30.30
2019-03-25T03:55:12.542Z,37.10
2019-03-25T03:56:14.165Z,21.30
2019-03-25T03:57:12.517Z,20.30
2019-03-25T03:58:12.505Z,23.10
2019-03-25T03:59:12.498Z,22.60
2019-03-25T04:00:12.486Z,25.20
2019-03-25T04:01:12.475Z,24.30
2019-03-25T04:02:12.563Z,27.80
2019-03-25T04:03:12.458Z,27.50
2019-03-25T04:04:12.441Z,25.70
2019-03-25T04:05:12.438Z,29.10
2019-03-25T04:06:12.494Z,57.40
2019-03-25T04:07:12.438Z,68.00
2019-03-25T04:08:12.400Z,64.80
2019-03-25T04:09:12.386Z,51.60
2019-03-25T04:10:12.388Z,35.30
2019-03-25T04:11:12.364Z,33.10
2019-03-25T04:12:12.353Z,29.30
2019-03-25T04:13:12.341Z,33.90
2019-03-25T04:14:12.328Z,75.20
2019-03-25T04:15:12.318Z,128.90
2019-03-25T04:16:12.316Z,52.60
2019-03-25T04:17:12.299Z,43.10
2019-03-25T04:18:12.289Z,34.90
2019-03-25T04:19:12.274Z,33.10
2019-03-25T04:20:12.264Z,35.40
2019-03-25T04:21:12.249Z,32.10
2019-03-25T04:22:12.241Z,56.60
2019-03-25T04:23:12.230Z,81.90
2019-03-25T04:24:12.216Z,84.60
2019-03-25T04:25:12.210Z,110.00
2019-03-25T04:26:27.236Z,64.90
2019-03-25T04:27:13.184Z,78.90
2019-03-25T04:28:12.171Z,95.60
2019-03-25T04:29:12.172Z,112.50
2019-03-25T04:30:12.151Z,75.00
2019-03-25T04:31:12.145Z,61.30
2019-03-25T04:32:12.130Z,41.40
2019-03-25T04:33:12.120Z,38.60
2019-03-25T04:34:12.110Z,47.10
2019-03-25T04:35:12.099Z,45.70
2019-03-25T04:36:12.084Z,80.50
2019-03-25T04:37:12.090Z,52.60
2019-03-25T04:38:12.063Z,95.50
2019-03-25T04:39:12.060Z,239.70
2019-03-25T04:40:12.040Z,158.90
2019-03-25T04:41:12.032Z,116.10
2019-03-25T04:42:12.025Z,55.30
2019-03-25T04:43:12.014Z,40.70
2019-03-25T04:44:11.997Z,36.70
2019-03-25T04:45:11.985Z,31.70
2019-03-25T04:46:11.974Z,49.60
2019-03-25T04:47:11.977Z,97.50
2019-03-25T04:48:11.949Z,90.10
2019-03-25T04:49:11.942Z,92.80
2019-03-25T04:50:11.931Z,145.30
2019-03-25T04:51:11.919Z,126.70
2019-03-25T04:52:11.911Z,80.40
2019-03-25T04:53:11.897Z,97.90
2019-03-25T04:54:11.886Z,124.80
2019-03-25T04:55:11.875Z,141.20
2019-03-25T04:56:11.866Z,114.50
2019-03-25T04:57:11.853Z,120.90
2019-03-25T04:58:11.846Z,83.80
2019-03-25T04:59:11.837Z,97.40
2019-03-25T05:00:11.825Z,75.70
2019-03-25T05:01:11.811Z,72.60
2019-03-25T05:02:11.801Z,129.60
2019-03-25T05:03:11.787Z,150.30
2019-03-25T05:04:11.778Z,61.20
2019-03-25T05:05:11.764Z,40.90
2019-03-25T05:06:11.759Z,36.80
2019-03-25T05:07:11.746Z,33.70
2019-03-25T05:08:11.738Z,30.50
2019-03-25T05:09:11.721Z,29.70
2019-03-25T05:10:11.711Z,26.90
2019-03-25T05:11:11.703Z,30.60
2019-03-25T05:12:11.693Z,61.30
2019-03-25T05:13:11.686Z,64.50
2019-03-25T05:14:11.666Z,40.50
2019-03-25T05:15:11.656Z,48.50
2019-03-25T05:16:11.648Z,94.30
2019-03-25T05:17:11.643Z,108.10
2019-03-25T05:18:11.623Z,91.40
2019-03-25T05:19:11.622Z,70.80
2019-03-25T05:20:11.603Z,34.80
2019-03-25T05:21:11.589Z,50.10
2019-03-25T05:22:11.583Z,55.30
2019-03-25T05:23:11.569Z,39.70
2019-03-25T05:24:11.611Z,55.30
2019-03-25T05:25:11.549Z,73.40
2019-03-25T05:26:11.541Z,100.40
2019-03-25T05:27:11.524Z,115.60
2019-03-25T05:28:11.515Z,46.10
2019-03-25T05:29:12.200Z,36.70
2019-03-25T05:30:11.495Z,29.80
2019-03-25T05:31:11.482Z,27.70
2019-03-25T05:32:11.467Z,26.00
2019-03-25T05:33:11.458Z,33.10
2019-03-25T05:34:11.445Z,24.80
2019-03-25T05:35:11.437Z,22.20
2019-03-25T05:36:11.426Z,22.40
2019-03-25T05:37:11.415Z,21.70
2019-03-25T05:38:11.403Z,21.30
2019-03-25T05:39:11.398Z,21.50
2019-03-25T05:40:11.386Z,21.40
2019-03-25T05:41:11.370Z,35.70
2019-03-25T05:42:11.359Z,33.30
2019-03-25T05:43:11.355Z,37.80
2019-03-25T05:44:11.343Z,25.60
2019-03-25T05:45:11.324Z,26.30
2019-03-25T05:46:11.317Z,25.30
2019-03-25T05:47:11.306Z,22.00
2019-03-25T05:48:11.298Z,19.30
2019-03-25T05:49:11.283Z,19.10
2019-03-25T05:50:11.273Z,20.20
2019-03-25T05:51:11.263Z,21.90
2019-03-25T05:52:11.252Z,19.60
2019-03-25T05:53:11.247Z,20.40
2019-03-25T05:54:11.228Z,21.50
2019-03-25T05:55:11.286Z,21.00
2019-03-25T05:56:11.209Z,20.00
2019-03-25T05:57:11.200Z,19.10
2019-03-25T05:58:11.185Z,19.10
2019-03-25T05:59:11.172Z,18.90
2019-03-25T06:00:11.163Z,19.00
2019-03-25T06:01:11.154Z,18.30
2019-03-25T06:02:11.142Z,19.50
2019-03-25T06:03:11.131Z,19.80
2019-03-25T06:04:11.115Z,19.00
2019-03-25T06:05:11.111Z,19.80
2019-03-25T06:06:11.091Z,19.50
2019-03-25T06:07:11.082Z,19.30
2019-03-25T06:08:11.073Z,17.60
2019-03-25T06:09:11.061Z,16.60
2019-03-25T06:10:11.050Z,16.90
2019-03-25T06:11:11.040Z,16.10
2019-03-25T06:12:11.030Z,15.10
2019-03-25T06:13:11.016Z,16.40
2019-03-25T06:14:11.007Z,15.80
2019-03-25T06:15:10.996Z,15.40
2019-03-25T06:16:11.064Z,16.60
2019-03-25T06:17:10.979Z,15.50
2019-03-25T06:18:10.962Z,14.90
2019-03-25T06:19:10.950Z,15.80
2019-03-25T06:20:10.938Z,15.50
2019-03-25T06:21:10.926Z,15.30
2019-03-25T06:22:10.934Z,15.50
2019-03-25T06:23:10.905Z,15.20
2019-03-25T06:24:10.894Z,14.40
2019-03-25T06:25:10.881Z,14.00
2019-03-25T06:26:10.872Z,13.70
2019-03-25T06:27:14.383Z,13.50
2019-03-25T06:28:10.857Z,14.30
2019-03-25T06:29:10.846Z,14.00
2019-03-25T06:30:10.832Z,13.60
2019-03-25T06:31:10.823Z,15.20
2019-03-25T06:32:10.804Z,15.80
2019-03-25T06:33:12.586Z,13.80
2019-03-25T06:34:10.792Z,14.90
2019-03-25T06:35:10.770Z,14.90
2019-03-25T06:36:10.764Z,14.90
2019-03-25T06:37:10.750Z,15.60
2019-03-25T06:38:10.744Z,15.40
2019-03-25T06:39:10.733Z,16.20
2019-03-25T06:40:10.721Z,17.10
2019-03-25T06:41:10.706Z,16.70
2019-03-25T06:42:10.696Z,16.20
2019-03-25T06:43:10.687Z,16.80
2019-03-25T06:44:10.674Z,16.80
2019-03-25T06:45:10.660Z,17.30
2019-03-25T06:46:10.653Z,17.60
2019-03-25T06:47:10.643Z,17.40
2019-03-25T06:48:10.638Z,17.40
2019-03-25T06:49:10.619Z,16.90
2019-03-25T06:50:10.606Z,16.70
2019-03-25T06:51:10.604Z,16.10
2019-03-25T06:52:10.588Z,16.20
2019-03-25T06:53:10.575Z,16.30
2019-03-25T06:54:10.588Z,18.00
2019-03-25T06:55:10.554Z,17.70
2019-03-25T06:56:10.539Z,15.70
2019-03-25T06:57:10.526Z,17.10
2019-03-25T06:58:10.524Z,16.60
2019-03-25T06:59:10.506Z,17.20
2019-03-25T07:00:10.495Z,15.90
2019-03-25T07:01:10.486Z,15.70
2019-03-25T07:02:10.489Z,15.50
2019-03-25T07:03:10.477Z,15.70
2019-03-25T07:04:10.451Z,17.00
2019-03-25T07:05:10.441Z,16.20
2019-03-25T07:06:10.432Z,16.10
2019-03-25T07:07:10.418Z,15.20
2019-03-25T07:08:10.405Z,14.30
2019-03-25T07:09:10.399Z,14.50
2019-03-25T07:10:10.400Z,15.50
2019-03-25T07:11:10.377Z,14.80
2019-03-25T07:12:10.363Z,14.70
2019-03-25T07:13:10.355Z,14.20
2019-03-25T07:14:10.348Z,15.00
2019-03-25T07:15:10.327Z,14.90
2019-03-25T07:16:10.314Z,16.00
2019-03-25T07:17:10.303Z,15.60
2019-03-25T07:18:10.296Z,15.40
2019-03-25T07:19:10.290Z,15.80
2019-03-25T07:20:10.274Z,15.30
2019-03-25T07:21:10.261Z,15.50
2019-03-25T07:22:10.252Z,15.20
2019-03-25T07:23:10.247Z,15.50
2019-03-25T07:24:10.231Z,15.90
2019-03-25T07:25:10.217Z,15.20
2019-03-25T07:26:10.208Z,14.90
2019-03-25T07:27:10.195Z,15.60
2019-03-25T07:28:10.184Z,14.90
2019-03-25T07:29:10.174Z,14.40
2019-03-25T07:30:11.450Z,15.00
2019-03-25T07:31:10.159Z,15.00
2019-03-25T07:32:10.151Z,15.30
2019-03-25T07:33:10.130Z,14.80
2019-03-25T07:34:10.119Z,14.80
2019-03-25T07:35:10.108Z,15.30
2019-03-25T07:36:10.100Z,15.40
2019-03-25T07:37:10.130Z,15.50
2019-03-25T07:38:10.087Z,16.50
2019-03-25T07:39:10.074Z,16.00
2019-03-25T07:40:10.054Z,16.10
2019-03-25T07:41:10.040Z,16.00
2019-03-25T07:42:10.040Z,16.00
2019-03-25T07:43:10.068Z,16.70
2019-03-25T07:44:10.010Z,16.20
2019-03-25T07:45:10.025Z,16.40
2019-03-25T07:46:09.987Z,17.30
2019-03-25T07:47:09.976Z,16.30
2019-03-25T07:48:09.970Z,16.70
2019-03-25T07:49:09.969Z,15.40
2019-03-25T07:50:09.939Z,15.20
2019-03-25T07:51:09.945Z,12.60
2019-03-25T07:52:09.919Z,14.10
2019-03-25T07:53:09.914Z,13.70
2019-03-25T07:54:09.933Z,14.50
2019-03-25T07:55:09.908Z,14.90
2019-03-25T07:56:09.890Z,13.10
2019-03-25T07:57:11.823Z,13.90
2019-03-25T07:58:09.873Z,13.30
2019-03-25T07:59:09.856Z,14.40
2019-03-25T08:00:13.921Z,12.70
2019-03-25T08:01:09.831Z,14.10
2019-03-25T08:02:09.832Z,14.60
2019-03-25T08:03:09.870Z,13.80
2019-03-25T08:04:09.790Z,13.00
2019-03-25T08:05:10.011Z,14.10
2019-03-25T08:06:09.902Z,15.10
2019-03-25T08:07:10.116Z,16.70
2019-03-25T08:08:09.767Z,16.10
2019-03-25T08:09:09.738Z,16.60
2019-03-25T08:10:09.726Z,15.80
2019-03-25T08:11:09.713Z,15.30
2019-03-25T08:12:09.731Z,15.70
2019-03-25T08:13:09.923Z,16.50
2019-03-25T08:14:09.678Z,16.20
2019-03-25T08:15:09.693Z,16.70
2019-03-25T08:16:09.671Z,15.20
2019-03-25T08:17:09.707Z,15.30
2019-03-25T08:18:09.643Z,16.00
2019-03-25T08:19:09.629Z,15.50
2019-03-25T08:20:09.634Z,15.40
2019-03-25T08:21:09.608Z,14.80
2019-03-25T08:22:09.679Z,15.10
2019-03-25T08:23:10.142Z,15.50
2019-03-25T08:24:09.608Z,12.50
2019-03-25T08:25:09.561Z,12.70
2019-03-25T08:26:09.578Z,13.50
2019-03-25T08:27:09.989Z,14.10
2019-03-25T08:28:09.754Z,12.70
2019-03-25T08:29:09.960Z,13.40
2019-03-25T08:30:09.512Z,13.90
2019-03-25T08:31:09.607Z,12.80
2019-03-25T08:32:09.493Z,12.00
2019-03-25T08:33:09.594Z,12.80
2019-03-25T08:34:09.644Z,11.90
2019-03-25T08:35:09.539Z,12.90
2019-03-25T08:36:09.469Z,12.70
2019-03-25T08:37:09.447Z,13.10
2019-03-25T08:38:09.424Z,12.90
2019-03-25T08:39:09.421Z,13.20
2019-03-25T08:40:09.407Z,13.80
2019-03-25T08:41:09.417Z,13.00
2019-03-25T08:42:09.388Z,12.40
2019-03-25T08:43:09.938Z,11.90
2019-03-25T08:44:09.469Z,12.10
2019-03-25T08:45:09.443Z,12.40
2019-03-25T08:46:09.555Z,12.50
2019-03-25T08:47:09.350Z,12.40
2019-03-25T08:48:09.318Z,12.10
2019-03-25T08:49:11.850Z,12.00
2019-03-25T08:50:09.290Z,12.20
2019-03-25T08:51:09.328Z,12.70
2019-03-25T08:52:09.283Z,13.20
2019-03-25T08:53:09.265Z,12.90
2019-03-25T08:54:09.263Z,12.70
2019-03-25T08:55:09.246Z,13.00
2019-03-25T08:56:09.232Z,12.30
2019-03-25T08:57:09.307Z,11.90
2019-03-25T08:58:12.380Z,12.00
2019-03-25T08:59:09.209Z,12.30
2019-03-25T09:00:09.191Z,12.60
2019-03-25T09:01:09.194Z,11.60
2019-03-25T09:02:09.180Z,12.10
2019-03-25T09:03:09.162Z,12.30
2019-03-25T09:04:09.148Z,12.00
2019-03-25T09:05:09.139Z,12.60
2019-03-25T09:06:09.127Z,12.00
2019-03-25T09:07:09.112Z,12.90
2019-03-25T09:08:09.101Z,11.70
2019-03-25T09:09:09.097Z,12.10
2019-03-25T09:10:09.085Z,12.80
2019-03-25T09:11:09.078Z,11.20
2019-03-25T09:12:09.063Z,12.20
2019-03-25T09:13:09.070Z,12.90
2019-03-25T09:14:09.045Z,12.80
2019-03-25T09:15:09.039Z,12.40
2019-03-25T09:16:09.022Z,12.40
2019-03-25T09:17:09.014Z,12.80
2019-03-25T09:18:09.004Z,12.50
2019-03-25T09:19:08.998Z,12.50
2019-03-25T09:20:08.989Z,12.40
2019-03-25T09:21:08.988Z,11.70
2019-03-25T09:22:08.964Z,12.30
2019-03-25T09:23:08.960Z,11.50
2019-03-25T09:24:08.945Z,11.90
2019-03-25T09:25:08.931Z,11.50
2019-03-25T09:26:08.917Z,12.40
2019-03-25T09:27:08.923Z,12.30
2019-03-25T09:28:08.898Z,12.90
2019-03-25T09:29:08.888Z,12.40
2019-03-25T09:30:08.875Z,11.50
2019-03-25T09:31:08.861Z,12.00
2019-03-25T09:32:08.861Z,12.60
2019-03-25T09:33:08.853Z,12.50
2019-03-25T09:34:08.852Z,12.70
2019-03-25T09:35:08.822Z,12.90
2019-03-25T09:36:08.814Z,12.70
2019-03-25T09:37:08.808Z,12.10
2019-03-25T09:38:08.802Z,12.40
2019-03-25T09:39:08.804Z,12.20
2019-03-25T09:40:08.778Z,12.00
2019-03-25T09:41:08.871Z,12.10
2019-03-25T09:42:08.762Z,11.30
2019-03-25T09:43:08.749Z,12.40
2019-03-25T09:44:08.772Z,12.90
2019-03-25T09:45:08.751Z,12.70
2019-03-25T09:46:08.810Z,12.50
2019-03-25T09:47:08.710Z,12.40
2019-03-25T09:48:08.750Z,11.80
2019-03-25T09:49:10.141Z,12.80
2019-03-25T09:50:08.677Z,12.90
2019-03-25T09:51:08.661Z,12.60
2019-03-25T09:52:08.667Z,13.00
2019-03-25T09:53:08.640Z,11.90
2019-03-25T09:54:08.667Z,12.60
2019-03-25T09:55:08.623Z,11.70
2019-03-25T09:56:08.663Z,12.10
2019-03-25T09:57:08.614Z,12.10
2019-03-25T09:58:08.595Z,11.60
2019-03-25T09:59:08.583Z,13.00
2019-03-25T10:00:08.588Z,11.70
2019-03-25T10:01:08.619Z,12.10
2019-03-25T10:02:08.548Z,11.50
2019-03-25T10:03:08.554Z,11.30
2019-03-25T10:04:08.545Z,11.30
2019-03-25T10:05:08.561Z,12.00
2019-03-25T10:06:08.538Z,11.40
2019-03-25T10:07:08.587Z,11.50
2019-03-25T10:08:08.489Z,11.40
2019-03-25T10:09:08.481Z,11.30
2019-03-25T10:10:08.479Z,10.80
2019-03-25T10:11:08.474Z,11.40
2019-03-25T10:12:08.456Z,10.40
2019-03-25T10:13:08.460Z,10.40
2019-03-25T10:14:08.431Z,9.70
2019-03-25T10:15:08.425Z,9.70
2019-03-25T10:16:08.409Z,10.40
2019-03-25T10:17:08.406Z,10.10
2019-03-25T10:18:08.397Z,10.20
2019-03-25T10:19:10.305Z,11.10
2019-03-25T10:20:08.378Z,10.40
2019-03-25T10:21:08.364Z,9.90
2019-03-25T10:22:08.351Z,9.90
2019-03-25T10:23:08.350Z,10.30
2019-03-25T10:24:08.363Z,9.80
2019-03-25T10:25:08.324Z,9.30
2019-03-25T10:26:08.319Z,9.80
2019-03-25T10:27:08.305Z,10.40
2019-03-25T10:28:08.289Z,9.80
2019-03-25T10:29:08.291Z,9.30
2019-03-25T10:30:08.276Z,9.00
2019-03-25T10:31:08.271Z,9.20
2019-03-25T10:32:08.252Z,9.20
2019-03-25T10:33:08.243Z,8.90
2019-03-25T10:34:08.242Z,8.50
2019-03-25T10:35:08.228Z,8.90
2019-03-25T10:36:08.219Z,8.50
2019-03-25T10:37:08.208Z,8.10
2019-03-25T10:38:19.116Z,9.00
2019-03-25T10:39:09.182Z,8.90
2019-03-25T10:40:08.198Z,8.40
2019-03-25T10:41:08.198Z,9.00
2019-03-25T10:42:08.159Z,8.80
2019-03-25T10:43:08.159Z,8.50
2019-03-25T10:44:08.141Z,8.40
2019-03-25T10:45:08.148Z,9.10
2019-03-25T10:46:08.122Z,8.80
2019-03-25T10:47:08.122Z,8.50
2019-03-25T10:48:08.378Z,8.50
2019-03-25T10:49:08.108Z,7.70
2019-03-25T10:50:08.080Z,8.50
2019-03-25T10:51:08.069Z,8.10
2019-03-25T10:52:08.143Z,7.70
2019-03-25T10:53:08.046Z,7.90
2019-03-25T10:54:08.034Z,7.40
2019-03-25T10:55:08.138Z,8.10
2019-03-25T10:56:08.014Z,7.70
2019-03-25T10:57:08.015Z,7.50
2019-03-25T10:58:08.184Z,8.70
2019-03-25T10:59:07.999Z,8.00
2019-03-25T11:00:07.985Z,11.00
2019-03-25T11:01:09.591Z,7.90
2019-03-25T11:02:07.964Z,8.30
2019-03-25T11:03:07.950Z,8.00
2019-03-25T11:04:07.949Z,8.00
2019-03-25T11:05:07.927Z,7.50
2019-03-25T11:06:07.919Z,7.00
2019-03-25T11:07:07.923Z,7.40
2019-03-25T11:08:07.902Z,7.20
2019-03-25T11:09:07.902Z,6.70
2019-03-25T11:10:07.889Z,6.20
2019-03-25T11:11:07.877Z,7.30
2019-03-25T11:12:07.866Z,7.00
2019-03-25T11:13:07.853Z,6.50
2019-03-25T11:14:07.835Z,6.90
2019-03-25T11:15:07.831Z,7.10
2019-03-25T11:16:07.835Z,8.70
2019-03-25T11:17:07.825Z,7.90
2019-03-25T11:18:07.845Z,6.50
2019-03-25T11:19:07.806Z,6.80
2019-03-25T11:20:07.794Z,7.00
2019-03-25T11:21:07.809Z,7.20
2019-03-25T11:22:07.765Z,6.90
2019-03-25T11:23:07.752Z,6.20
2019-03-25T11:24:07.743Z,6.40
2019-03-25T11:25:07.741Z,6.50
2019-03-25T11:26:07.753Z,6.50
2019-03-25T11:27:07.711Z,6.80
2019-03-25T11:28:07.699Z,6.40
2019-03-25T11:29:08.587Z,6.20
2019-03-25T11:30:07.679Z,6.70
2019-03-25T11:31:07.688Z,6.60
2019-03-25T11:32:07.667Z,6.20
2019-03-25T11:33:07.654Z,6.80
2019-03-25T11:34:07.648Z,7.10
2019-03-25T11:35:07.635Z,6.60
2019-03-25T11:36:07.635Z,6.50
2019-03-25T11:37:07.610Z,6.70
2019-03-25T11:38:07.607Z,7.00
2019-03-25T11:39:07.596Z,7.30
2019-03-25T11:40:07.651Z,7.50
2019-03-25T11:41:07.577Z,6.70
2019-03-25T11:42:07.567Z,6.80
2019-03-25T11:43:07.609Z,6.50
2019-03-25T11:44:07.564Z,6.40
2019-03-25T11:45:07.547Z,6.30
2019-03-25T11:46:07.543Z,6.40
2019-03-25T11:47:07.521Z,6.70
2019-03-25T11:48:07.514Z,6.90
2019-03-25T11:49:07.500Z,7.40
2019-03-25T11:50:07.493Z,7.50
2019-03-25T11:51:07.483Z,7.50
2019-03-25T11:52:07.506Z,7.40
2019-03-25T11:53:07.465Z,7.80
2019-03-25T11:54:07.456Z,7.20
2019-03-25T11:55:07.471Z,8.80
2019-03-25T11:56:07.434Z,7.20
2019-03-25T11:57:07.429Z,6.80
2019-03-25T11:58:07.441Z,6.80
2019-03-25T11:59:07.408Z,6.60
2019-03-25T12:00:07.415Z,7.90
2019-03-25T12:01:07.392Z,6.90
2019-03-25T12:02:17.111Z,7.40
2019-03-25T12:03:08.372Z,6.80
2019-03-25T12:04:07.368Z,6.80
2019-03-25T12:05:07.357Z,6.60
2019-03-25T12:06:07.343Z,6.60
2019-03-25T12:07:07.338Z,8.10
2019-03-25T12:08:07.330Z,6.30
2019-03-25T12:09:07.316Z,6.80
2019-03-25T12:10:07.314Z,6.20
2019-03-25T12:11:07.297Z,7.30
2019-03-25T12:12:07.287Z,7.10
2019-03-25T12:13:07.288Z,6.90
2019-03-25T12:14:07.271Z,7.50
2019-03-25T12:15:07.270Z,7.10
2019-03-25T12:16:07.254Z,7.50
2019-03-25T12:17:07.239Z,6.90
2019-03-25T12:18:07.235Z,7.50
2019-03-25T12:19:07.300Z,7.70
2019-03-25T12:20:07.211Z,7.70
2019-03-25T12:21:07.205Z,7.00
2019-03-25T12:22:07.191Z,7.70
2019-03-25T12:23:07.189Z,7.40
2019-03-25T12:24:07.177Z,6.70
2019-03-25T12:25:07.162Z,7.10
2019-03-25T12:26:07.155Z,6.90
2019-03-25T12:27:07.169Z,7.30
2019-03-25T12:28:07.136Z,7.60
2019-03-25T12:29:07.121Z,6.50
2019-03-25T12:30:07.129Z,7.40
2019-03-25T12:31:07.108Z,6.80
2019-03-25T12:32:07.096Z,7.10
2019-03-25T12:33:07.080Z,6.50
2019-03-25T12:34:07.104Z,7.00
2019-03-25T12:35:07.064Z,6.40
2019-03-25T12:36:07.052Z,6.00
2019-03-25T12:37:07.043Z,6.70
2019-03-25T12:38:07.031Z,6.80
2019-03-25T12:39:07.024Z,5.80
2019-03-25T12:40:07.994Z,5.40
2019-03-25T12:41:07.001Z,5.20
2019-03-25T12:42:06.997Z,5.30
2019-03-25T12:43:06.981Z,5.50
2019-03-25T12:44:06.982Z,7.60
2019-03-25T12:45:06.967Z,5.50
2019-03-25T12:46:06.959Z,5.90
2019-03-25T12:47:06.943Z,5.70
2019-03-25T12:48:06.933Z,6.30
2019-03-25T12:49:06.925Z,6.00
2019-03-25T12:50:06.917Z,5.70
2019-03-25T12:51:06.905Z,6.30
2019-03-25T12:52:06.911Z,6.00
2019-03-25T12:53:06.891Z,5.80
2019-03-25T12:54:06.875Z,5.60
2019-03-25T12:55:06.866Z,5.60
2019-03-25T12:56:06.863Z,5.40